createdAt,value
2018-11-07T00:03:42.733Z,21.73
2018-11-07T00:08:46.053Z,21.74
2018-11-07T00:13:49.346Z,21.75
2018-11-07T00:18:52.637Z,21.73
2018-11-07T00:23:55.929Z,21.72
2018-11-07T00:28:59.221Z,21.73
2018-11-07T00:34:02.513Z,21.74
2018-11-07T00:39:07.310Z,21.74
2018-11-07T00:44:10.622Z,21.70
2018-11-07T00:49:13.930Z,21.69
2018-11-07T00:54:17.221Z,21.71
2018-11-07T00:59:20.559Z,21.72
2018-11-07T01:04:23.866Z,21.70
2018-11-07T01:09:27.234Z,21.71
2018-11-07T01:14:30.565Z,21.71
2018-11-07T01:19:33.878Z,21.69
2018-11-07T01:24:37.177Z,21.68
2018-11-07T01:29:40.465Z,21.67
2018-11-07T01:34:43.762Z,21.70
2018-11-07T01:39:47.053Z,21.72
2018-11-07T01:44:50.361Z,21.68
2018-11-07T01:49:53.656Z,21.69
2018-11-07T01:54:56.950Z,21.67
2018-11-07T02:00:00.288Z,21.69
2018-11-07T02:05:03.823Z,21.65
2018-11-07T02:10:08.261Z,21.66
2018-11-07T02:15:11.881Z,21.65
2018-11-07T02:20:15.173Z,21.65
2018-11-07T02:25:18.481Z,21.66
2018-11-07T02:30:21.785Z,21.62
2018-11-07T02:35:25.183Z,21.63
2018-11-07T02:40:28.529Z,21.64
2018-11-07T02:45:31.840Z,21.64
2018-11-07T02:50:35.159Z,21.66
2018-11-07T02:55:38.449Z,21.63
2018-11-07T03:00:41.762Z,21.63
2018-11-07T03:05:45.073Z,21.62
2018-11-07T03:10:48.454Z,21.62
2018-11-07T03:15:51.762Z,21.60
2018-11-07T03:20:55.061Z,21.64
2018-11-07T03:25:58.541Z,21.65
2018-11-07T03:31:01.847Z,21.62
2018-11-07T03:36:05.314Z,21.58
2018-11-07T03:41:08.613Z,21.62
2018-11-07T03:46:11.926Z,21.60
2018-11-07T03:51:15.217Z,21.59
2018-11-07T03:56:18.526Z,21.62
2018-11-07T04:01:21.835Z,21.63
2018-11-07T04:06:25.145Z,21.60
2018-11-07T04:11:28.478Z,21.61
2018-11-07T04:16:31.789Z,21.58
2018-11-07T04:21:35.245Z,21.59
2018-11-07T04:26:39.011Z,21.57
2018-11-07T04:31:42.290Z,21.59
2018-11-07T04:36:45.647Z,21.59
2018-11-07T04:41:48.933Z,21.57
2018-11-07T04:46:52.221Z,21.58
2018-11-07T04:51:55.517Z,21.60
2018-11-07T04:56:58.781Z,21.60
2018-11-07T05:02:02.079Z,21.62
2018-11-07T05:07:05.471Z,21.62
2018-11-07T05:12:08.753Z,21.63
2018-11-07T05:17:12.021Z,21.61
2018-11-07T05:22:15.288Z,21.61
2018-11-07T05:27:18.653Z,21.59
2018-11-07T05:32:21.922Z,21.59
2018-11-07T05:37:25.206Z,21.56
2018-11-07T05:42:28.489Z,21.57
2018-11-07T05:47:31.757Z,21.58
2018-11-07T05:52:35.262Z,21.57
2018-11-07T05:57:38.670Z,21.61
2018-11-07T06:02:42.088Z,21.59
2018-11-07T06:07:45.362Z,21.55
2018-11-07T06:12:48.654Z,21.56
2018-11-07T06:17:51.930Z,21.57
2018-11-07T06:22:55.247Z,21.55
2018-11-07T06:27:58.502Z,21.56
2018-11-07T06:33:01.775Z,21.58
2018-11-07T06:38:05.317Z,21.56
2018-11-07T06:43:08.605Z,21.52
2018-11-07T06:48:11.877Z,21.53
2018-11-07T06:53:15.154Z,21.54
2018-11-07T06:58:18.644Z,21.52
2018-11-07T07:03:21.915Z,21.54
2018-11-07T07:08:25.198Z,21.55
2018-11-07T07:13:28.473Z,21.58
2018-11-07T07:18:31.954Z,21.60
2018-11-07T07:23:36.346Z,21.58
2018-11-07T07:28:39.633Z,21.59
2018-11-07T07:33:42.916Z,21.57
2018-11-07T07:38:46.292Z,21.62
2018-11-07T07:43:49.814Z,21.58
2018-11-07T07:48:53.091Z,21.56
2018-11-07T07:53:56.361Z,21.58
2018-11-07T07:58:59.629Z,21.59
2018-11-07T08:04:02.897Z,21.60
2018-11-07T08:09:10.485Z,21.61
2018-11-07T08:14:13.758Z,21.61
2018-11-07T08:19:17.041Z,21.58
2018-11-07T08:24:20.318Z,21.55
2018-11-07T08:29:23.601Z,21.59
2018-11-07T08:34:26.878Z,21.60
2018-11-07T08:39:30.161Z,21.55
2018-11-07T08:44:33.458Z,21.54
2018-11-07T08:49:36.725Z,21.57
2018-11-07T08:54:40.006Z,21.53
2018-11-07T08:59:43.287Z,21.54
2018-11-07T09:04:46.649Z,21.57
2018-11-07T09:09:50.037Z,20.73
2018-11-07T09:14:53.318Z,20.35
2018-11-07T09:19:56.733Z,20.19
2018-11-07T09:25:00.008Z,20.14
2018-11-07T09:30:03.399Z,20.10
2018-11-07T09:35:07.523Z,20.10
2018-11-07T09:40:13.274Z,20.18
2018-11-07T09:45:17.809Z,20.02
2018-11-07T09:50:22.117Z,20.03
2018-11-07T09:55:26.559Z,19.97
2018-11-07T10:00:30.851Z,19.96
2018-11-07T10:05:35.343Z,19.96
2018-11-07T10:10:39.367Z,19.86
2018-11-07T10:15:43.588Z,19.76
2018-11-07T10:20:46.914Z,19.83
2018-11-07T10:25:50.198Z,19.79
2018-11-07T10:30:53.510Z,19.75
2018-11-07T10:35:56.794Z,19.78
2018-11-07T10:41:00.107Z,19.77
2018-11-07T10:46:03.470Z,19.85
2018-11-07T10:51:06.913Z,19.79
2018-11-07T10:56:10.226Z,19.65
2018-11-07T11:02:22.315Z,19.54
2018-11-07T11:07:26.825Z,19.62
2018-11-07T11:12:31.384Z,19.68
2018-11-07T11:17:35.919Z,19.68
2018-11-07T11:22:40.519Z,19.79
2018-11-07T11:27:44.880Z,19.90
2018-11-07T11:32:48.331Z,19.96
2018-11-07T11:37:51.689Z,20.02
2018-11-07T11:42:54.978Z,20.15
2018-11-07T11:47:58.334Z,20.10
2018-11-07T11:53:01.619Z,20.12
2018-11-07T11:58:05.137Z,20.01
2018-11-07T12:03:08.442Z,20.14
2018-11-07T12:08:12.464Z,20.22
2018-11-07T12:13:15.812Z,20.31
2018-11-07T12:18:19.083Z,20.37
2018-11-07T12:23:22.376Z,20.33
2018-11-07T12:28:25.741Z,20.53
2018-11-07T12:33:29.050Z,20.63
2018-11-07T12:38:32.559Z,20.77
2018-11-07T12:43:35.846Z,20.87
2018-11-07T12:48:39.142Z,20.92
2018-11-07T12:53:42.434Z,21.01
2018-11-07T12:58:45.738Z,21.03
2018-11-07T13:03:49.046Z,21.06
2018-11-07T13:08:52.346Z,21.07
2018-11-07T13:13:55.642Z,21.10
2018-11-07T13:18:59.146Z,21.12
2018-11-07T13:24:02.442Z,21.14
2018-11-07T13:29:05.749Z,21.16
2018-11-07T13:34:09.136Z,21.21
2018-11-07T13:39:13.661Z,21.23
2018-11-07T13:44:16.798Z,21.22
2018-11-07T13:49:20.098Z,21.20
2018-11-07T13:54:23.398Z,21.21
2018-11-07T13:59:27.665Z,21.22
2018-11-07T14:04:30.886Z,21.21
2018-11-07T14:09:34.218Z,21.23
2018-11-07T14:14:37.527Z,21.23
2018-11-07T14:19:40.859Z,21.19
2018-11-07T14:24:44.245Z,21.25
2018-11-07T14:29:47.559Z,21.28
2018-11-07T14:34:50.906Z,21.29
2018-11-07T14:39:54.211Z,21.40
2018-11-07T14:44:57.538Z,21.42
2018-11-07T14:50:00.867Z,21.48
2018-11-07T14:55:04.790Z,21.53
2018-11-07T15:00:10.529Z,21.50
2018-11-07T15:05:14.898Z,21.54
2018-11-07T15:10:18.725Z,21.57
2018-11-07T15:15:22.033Z,21.62
2018-11-07T15:20:25.349Z,21.66
2018-11-07T15:25:30.996Z,21.63
2018-11-07T15:30:34.366Z,21.63
2018-11-07T15:35:37.765Z,21.64
2018-11-07T15:40:41.073Z,21.58
2018-11-07T15:45:44.651Z,21.56
2018-11-07T15:50:53.257Z,21.56
2018-11-07T15:55:56.666Z,21.59
2018-11-07T16:00:59.968Z,21.59
2018-11-07T16:06:03.383Z,21.63
2018-11-07T16:11:06.746Z,21.61
2018-11-07T16:16:10.050Z,21.65
2018-11-07T16:21:13.360Z,21.66
2018-11-07T16:26:16.657Z,21.58
2018-11-07T16:31:20.002Z,21.64
2018-11-07T16:36:23.632Z,21.65
2018-11-07T16:41:27.050Z,21.61
2018-11-07T16:46:30.315Z,21.59
2018-11-07T16:51:33.605Z,21.58
2018-11-07T16:56:36.938Z,21.62
2018-11-07T17:01:40.429Z,21.62
2018-11-07T17:06:43.886Z,21.65
2018-11-07T17:11:47.211Z,21.73
2018-11-07T17:16:50.669Z,21.82
2018-11-07T17:21:54.138Z,21.89
2018-11-07T17:26:57.479Z,21.92
2018-11-07T17:32:00.797Z,21.92
2018-11-07T17:37:05.387Z,21.90
2018-11-07T17:42:08.811Z,21.85
2018-11-07T17:47:12.138Z,21.89
2018-11-07T17:52:15.466Z,21.88
2018-11-07T17:57:19.000Z,21.77
2018-11-07T18:02:22.308Z,21.84
2018-11-07T18:07:25.634Z,21.91
2018-11-07T18:12:28.944Z,21.92
2018-11-07T18:17:32.278Z,21.92
2018-11-07T18:22:35.589Z,21.95
2018-11-07T18:27:39.158Z,22.03
2018-11-07T18:32:43.229Z,22.05
2018-11-07T18:37:46.990Z,22.03
2018-11-07T18:42:50.362Z,21.92
2018-11-07T18:47:54.783Z,21.87
2018-11-07T18:52:58.120Z,22.01
2018-11-07T18:58:01.751Z,22.12
2018-11-07T19:03:05.565Z,22.08
2018-11-07T19:08:08.930Z,22.11
2018-11-07T19:13:12.239Z,22.13
2018-11-07T19:18:15.647Z,22.14
2018-11-07T19:23:18.945Z,22.12
2018-11-07T19:28:22.357Z,22.19
2018-11-07T19:33:25.662Z,22.22
2018-11-07T19:38:28.973Z,22.23
2018-11-07T19:43:32.287Z,22.13
2018-11-07T19:48:35.593Z,22.14
2018-11-07T19:53:39.027Z,22.07
2018-11-07T19:58:42.373Z,22.07
2018-11-07T20:03:45.874Z,22.06
2018-11-07T20:08:49.177Z,22.07
2018-11-07T20:13:52.600Z,22.07
2018-11-07T20:18:55.905Z,22.06
2018-11-07T20:23:59.814Z,22.06
2018-11-07T20:29:03.125Z,22.01
2018-11-07T20:34:06.997Z,21.98
2018-11-07T20:39:11.622Z,22.00
2018-11-07T20:44:14.965Z,21.94
2018-11-07T20:49:18.285Z,21.96
2018-11-07T20:54:21.587Z,21.92
2018-11-07T20:59:24.918Z,21.93
2018-11-07T21:04:28.270Z,21.97
2018-11-07T21:09:32.071Z,21.89
2018-11-07T21:14:35.382Z,21.87
2018-11-07T21:19:38.682Z,21.90
2018-11-07T21:24:41.957Z,21.89
2018-11-07T21:29:45.263Z,21.85
2018-11-07T21:34:48.571Z,21.84
2018-11-07T21:39:51.880Z,21.80
2018-11-07T21:44:55.668Z,21.82
2018-11-07T21:49:59.197Z,21.80
2018-11-07T21:55:02.505Z,21.83
2018-11-07T22:00:10.257Z,21.83
2018-11-07T22:05:14.672Z,21.81
2018-11-07T22:10:19.187Z,21.81
2018-11-07T22:15:22.977Z,21.82
2018-11-07T22:20:26.810Z,21.80
2018-11-07T22:25:30.109Z,21.81
2018-11-07T22:30:33.422Z,21.74
2018-11-07T22:35:37.157Z,21.78
2018-11-07T22:40:40.464Z,21.75
2018-11-07T22:45:43.794Z,21.72
2018-11-07T22:50:47.311Z,21.71
2018-11-07T22:55:51.163Z,21.75
2018-11-07T23:01:02.751Z,21.74
2018-11-07T23:06:06.294Z,21.73
2018-11-07T23:11:09.686Z,21.74
2018-11-07T23:16:12.981Z,21.78
2018-11-07T23:21:16.258Z,21.72
2018-11-07T23:26:19.542Z,21.70
2018-11-07T23:31:22.930Z,21.69
2018-11-07T23:36:26.198Z,21.73
2018-11-07T23:41:29.590Z,21.73
2018-11-07T23:46:32.966Z,21.72
2018-11-07T23:51:39.756Z,21.73
2018-11-07T23:56:43.038Z,21.76
